Terminal Aerodrome Forecast
Issued by NWS Jacksonville, FL

Home | Current Version | Previous Version | Text Only | Print | Product List | Glossary On
Versions: 1 2 3 4 5 6 7 8 9 10 11 12 13 14 15 16 17 18 19 20 21 22 23 24
000
FTUS42 KJAX 152300 RRA
TAFSSI
TAF
KSSI 152341Z 1600/1624 30015G25KT P6SM BKN012 OVC025
     FM160300 35014G22KT P6SM SCT020
     FM161300 05017G27KT P6SM BKN025=

USA.gov is the U.S. government's official web portal to all federal, state and local government web resources and services.